Time;durP1;ratioP1;P1;durP2;ratioP2;P2;SDS_P1;SDS_P2;PMS_P1;PMS_P2;Temp;Humidity;BMP_temperature;BMP_pressure;BME280_temperature;BME280_humidity;BME280_pressure;Samples;Min_cycle;Max_cycle;Signal;HPM_P1;HPM_P2
2021/12/16 00:02:51;;;;;;;36.15;13.88;;;;;;;0.90;100.00;56130.41;1613983;87;21088;-54
2021/12/16 00:07:46;;;;;;;39.63;16.30;;;;;;;0.83;100.00;51790.91;1612324;88;21106;-53
2021/12/16 00:29:40;;;;;;;34.70;12.33;;;;;;;0.69;100.00;34837.18;1620926;87;21637;-59
2021/12/16 00:34:31;;;;;;;36.93;13.32;;;;;;;0.69;100.00;31856.11;1650311;85;21034;-59
2021/12/16 00:36:57;;;;;;;29.90;12.30;;;;;;;0.70;100.00;29871.29;1613470;87;21165;-58
2021/12/16 00:39:32;;;;;;;34.65;13.80;;;;;;;0.72;100.00;28714.30;1622797;85;21135;-54
2021/12/16 00:42:07;;;;;;;43.08;14.38;;;;;;;0.72;100.00;27226.26;1620260;87;21629;-54
2021/12/16 00:49:42;;;;;;;31.15;12.75;;;;;;;0.73;100.00;25739.38;1623276;87;21254;-54
2021/12/16 00:55:08;;;;;;;36.70;13.10;;;;;;;0.76;100.00;26401.63;1613437;87;21542;-58
2021/12/16 00:57:29;;;;;;;30.55;12.98;;;;;;;0.76;100.00;26401.88;1617794;87;21489;-53
2021/12/16 00:59:58;;;;;;;34.60;13.55;;;;;;;0.78;100.00;26237.37;1576003;87;21082;-54
2021/12/16 01:02:45;;;;;;;33.05;13.03;;;;;;;0.79;100.00;26072.87;1621431;87;21169;-55
2021/12/16 01:33:34;;;;;;;;;;;;;;;0.87;100.00;26902.89;1615593;87;21087;-55
2021/12/16 01:50:48;;;;;;;24.15;10.15;;;;;;;1.00;100.00;44982.95;1621588;87;21019;-54
2021/12/16 06:56:50;;;;;;;23.30;9.63;;;;;;;1.42;100.00;148027.84;1801083;77;21828;-57
2021/12/16 06:59:20;;;;;;;20.35;9.08;;;;;;;1.42;100.00;148027.84;1833366;76;21461;-56
2021/12/16 07:05:40;;;;;;;32.80;10.95;;;;;;;1.41;100.00;148025.27;1743157;78;20933;-60
2021/12/16 07:08:12;;;;;;;28.83;10.50;;;;;;;1.39;100.00;148020.13;1741807;80;21498;-60
2021/12/16 07:10:40;;;;;;;23.85;10.82;;;;;;;1.38;100.00;148017.55;1732901;79;21073;-60
2021/12/16 07:13:16;;;;;;;22.13;11.25;;;;;;;1.36;100.00;148012.39;1730922;78;21591;-60
2021/12/16 07:15:38;;;;;;;27.45;11.30;;;;;;;1.33;100.00;148004.67;1722718;79;21930;-59
2021/12/16 07:18:06;;;;;;;24.90;11.85;;;;;;;1.32;100.00;148002.09;1718697;81;22080;-60
2021/12/16 07:20:34;;;;;;;25.17;11.40;;;;;;;1.30;100.00;147996.95;1728945;81;21068;-60
2021/12/16 07:23:04;;;;;;;21.65;10.03;;;;;;;1.28;100.00;147993.06;1731096;80;21652;-60
2021/12/16 07:25:35;;;;;;;19.17;9.20;;;;;;;1.28;100.00;147991.80;1715050;80;21137;-60
2021/12/16 07:28:07;;;;;;;23.15;10.35;;;;;;;1.25;100.00;147984.08;1744894;80;21146;-59
2021/12/16 07:30:38;;;;;;;26.80;12.05;;;;;;;1.24;100.00;147981.50;1714954;80;21028;-60
2021/12/16 07:33:05;;;;;;;38.65;16.50;;;;;;;1.23;100.00;147980.19;1725611;80;20990;-59
2021/12/16 07:35:33;;;;;;;34.10;13.13;;;;;;;1.24;100.00;147981.50;1702315;81;21183;-59
2021/12/16 07:38:00;;;;;;;29.95;13.03;;;;;;;1.23;100.00;147978.94;1729379;80;21599;-60
2021/12/16 07:40:27;;;;;;;27.30;11.48;;;;;;;1.25;100.00;147985.34;1729607;80;21229;-60
2021/12/16 07:45:41;;;;;;;30.77;13.45;;;;;;;1.25;100.00;147985.34;1731653;80;21039;-59
2021/12/16 07:48:13;;;;;;;32.38;13.25;;;;;;;1.24;100.00;147981.50;1718598;81;21138;-61
2021/12/16 07:50:44;;;;;;;26.17;13.32;;;;;;;1.24;100.00;147981.50;1730085;80;21099;-60
2021/12/16 07:53:11;;;;;;;27.80;12.88;;;;;;;1.26;100.00;147986.66;1751472;80;21627;-59
2021/12/16 07:55:47;;;;;;;28.32;13.53;;;;;;;1.25;100.00;147984.08;1739775;80;21470;-60
2021/12/16 07:58:13;;;;;;;30.32;13.18;;;;;;;1.22;100.00;147976.36;1712113;81;21165;-60
2021/12/16 08:00:40;;;;;;;31.05;13.00;;;;;;;1.21;100.00;147973.73;1711600;80;21720;-59
2021/12/16 08:03:58;;;;;;;29.85;13.35;;;;;;;1.21;100.00;147973.73;1672776;82;21634;-58
2021/12/16 08:06:44;;;;;;;27.52;13.22;;;;;;;1.22;100.00;147976.36;1684450;81;21112;-60
2021/12/16 08:09:11;;;;;;;31.05;14.03;;;;;;;1.26;100.00;147986.66;1703635;81;21121;-60
2021/12/16 08:11:39;;;;;;;33.98;14.45;;;;;;;1.24;100.00;147982.77;1706373;81;21149;-58
2021/12/16 08:14:18;;;;;;;30.43;13.43;;;;;;;1.20;100.00;147972.47;1709818;80;21576;-59
2021/12/16 08:16:52;;;;;;;33.48;13.68;;;;;;;1.19;100.00;147969.89;1676991;80;21132;-59
2021/12/16 08:19:20;;;;;;;33.50;14.68;;;;;;;1.14;100.00;147958.28;1708736;81;22338;-61
2021/12/16 08:22:04;;;;;;;37.45;15.80;;;;;;;1.16;100.00;147960.86;1702664;82;21136;-59
2021/12/16 08:24:32;;;;;;;42.45;16.62;;;;;;;1.17;100.00;147964.75;1726545;80;21172;-59
2021/12/16 08:27:01;;;;;;;31.48;13.25;;;;;;;1.19;100.00;147968.59;1719163;80;21122;-59
2021/12/16 08:29:29;;;;;;;36.85;16.30;;;;;;;1.18;100.00;147967.31;1732501;80;21112;-58
2021/12/16 08:31:56;;;;;;;35.35;15.70;;;;;;;1.17;100.00;147964.75;1730947;80;21180;-58
2021/12/16 08:34:25;;;;;;;37.25;15.08;;;;;;;1.18;100.00;147966.02;1725821;81;21037;-59
2021/12/16 08:36:54;;;;;;;38.65;16.73;;;;;;;1.19;100.00;147969.89;1715812;81;21049;-60
2021/12/16 08:39:22;;;;;;;32.90;16.55;;;;;;;1.20;100.00;147971.16;1724957;81;21109;-58
2021/12/16 08:41:50;;;;;;;49.77;16.45;;;;;;;1.20;100.00;147971.16;1743693;80;21093;-58
2021/12/16 08:44:17;;;;;;;37.20;16.20;;;;;;;1.19;100.00;147968.59;1732744;80;21182;-59
2021/12/16 08:46:47;;;;;;;39.03;15.30;;;;;;;1.19;100.00;147968.59;1722502;80;21032;-59
2021/12/16 08:49:17;;;;;;;41.70;15.55;;;;;;;1.20;100.00;147971.16;1718704;80;21141;-59
2021/12/16 08:51:48;;;;;;;42.17;16.57;;;;;;;1.19;100.00;147968.59;1736194;80;20981;-60
2021/12/16 08:54:19;;;;;;;35.17;15.00;;;;;;;1.18;100.00;147966.02;1739247;79;21071;-61
2021/12/16 08:56:46;;;;;;;35.80;15.68;;;;;;;1.16;100.00;147960.86;1719995;79;21133;-59
2021/12/16 08:59:15;;;;;;;41.45;16.27;;;;;;;1.16;100.00;147960.86;1735588;80;22193;-59
2021/12/16 09:01:46;;;;;;;45.30;16.20;;;;;;;1.16;100.00;147962.17;1724129;80;21160;-59
2021/12/16 09:04:13;;;;;;;33.58;16.37;;;;;;;1.12;100.00;147953.14;1736882;80;21041;-59
2021/12/16 09:06:39;;;;;;;36.17;14.90;;;;;;;1.14;100.00;147958.28;1746825;80;21084;-58
2021/12/16 09:09:07;;;;;;;41.68;16.10;;;;;;;1.16;100.00;147960.86;1743292;80;22013;-59
2021/12/16 09:11:41;;;;;;;33.88;13.58;;;;;;;1.17;100.00;147964.75;1728447;80;21529;-58
2021/12/16 09:14:12;;;;;;;34.53;16.30;;;;;;;1.16;100.00;147960.86;1728506;80;21296;-59
2021/12/16 09:16:46;;;;;;;38.45;16.15;;;;;;;1.17;100.00;147963.44;1700515;81;20957;-58
2021/12/16 09:19:11;;;;;;;39.98;17.35;;;;;;;1.17;100.00;147964.75;1665430;83;21581;-58
2021/12/16 09:21:37;;;;;;;37.50;17.05;;;;;;;1.22;100.00;147976.36;1706829;81;21309;-57
2021/12/16 09:24:07;;;;;;;41.00;17.52;;;;;;;1.26;100.00;146879.86;1682713;82;20966;-59
2021/12/16 09:26:33;;;;;;;38.13;15.95;;;;;;;1.29;100.00;147454.95;1735890;81;21061;-59
2021/12/16 09:29:01;;;;;;;36.75;15.68;;;;;;;1.28;100.00;147991.80;1715986;81;21113;-62
2021/12/16 09:31:29;;;;;;;41.83;17.17;;;;;;;1.25;100.00;147984.08;1702194;81;22087;-60
2021/12/16 09:33:56;;;;;;;39.30;15.90;;;;;;;1.23;100.00;147980.19;1731352;79;21152;-62
2021/12/16 09:36:26;;;;;;;43.02;17.73;;;;;;;1.23;100.00;147978.94;1684466;80;21043;-60
2021/12/16 09:38:53;;;;;;;48.63;18.20;;;;;;;1.25;100.00;147985.34;1660202;84;21094;-60
2021/12/16 09:41:21;;;;;;;45.88;16.40;;;;;;;1.29;100.00;147934.14;1707856;81;21104;-59
2021/12/16 09:43:52;;;;;;;42.20;17.00;;;;;;;1.31;100.00;147153.63;1687425;82;21702;-59
2021/12/16 09:46:23;;;;;;;39.03;17.20;;;;;;;1.32;100.00;147522.89;1686718;82;21563;-59
2021/12/16 09:48:51;;;;;;;40.45;17.27;;;;;;;1.33;100.00;147949.78;1687385;82;21118;-58
2021/12/16 09:51:22;;;;;;;41.40;16.12;;;;;;;1.34;100.00;148005.98;1724220;80;21039;-59
2021/12/16 09:53:56;;;;;;;41.23;15.23;;;;;;;1.35;100.00;148008.56;1661667;83;21131;-60
2021/12/16 09:56:24;;;;;;;41.92;16.77;;;;;;;1.34;100.00;148007.25;1698786;81;22262;-61
2021/12/16 09:58:51;;;;;;;38.42;16.17;;;;;;;1.34;100.00;148007.25;1712103;81;21775;-60
2021/12/16 10:01:18;;;;;;;39.65;15.85;;;;;;;1.31;100.00;147999.53;1736235;80;21593;-59
2021/12/16 10:03:47;;;;;;;42.00;14.73;;;;;;;1.30;100.00;147996.95;1720640;81;21589;-60
2021/12/16 10:06:15;;;;;;;45.10;16.87;;;;;;;1.30;100.00;147996.95;1725728;80;21121;-60
2021/12/16 10:08:43;;;;;;;47.65;17.05;;;;;;;1.29;100.00;147994.38;1724982;80;21117;-58
2021/12/16 10:11:10;;;;;;;37.75;15.68;;;;;;;1.29;100.00;147994.38;1727397;80;21093;-59
2021/12/16 10:13:58;;;;;;;44.50;15.85;;;;;;;1.30;100.00;147996.95;1744422;80;21209;-60
2021/12/16 10:18:37;;;;;;;39.98;17.30;;;;;;;1.26;100.00;147986.66;1673149;83;21114;-60
2021/12/16 10:21:07;;;;;;;39.83;15.45;;;;;;;1.23;100.00;147978.94;1715162;79;21038;-59
2021/12/16 10:23:43;;;;;;;43.55;16.97;;;;;;;1.24;100.00;147918.59;1721590;80;21981;-58
2021/12/16 10:26:20;;;;;;;47.10;17.50;;;;;;;1.22;100.00;147977.63;1709512;81;21027;-59
2021/12/16 10:28:50;;;;;;;40.88;16.87;;;;;;;1.21;100.00;147973.73;1717044;80;21184;-59
2021/12/16 10:31:34;;;;;;;40.75;16.37;;;;;;;1.22;100.00;147973.69;1725154;80;21133;-58
2021/12/16 10:34:07;;;;;;;38.85;15.60;;;;;;;1.21;100.00;147975.05;1731632;80;21132;-58
2021/12/16 10:36:40;;;;;;;36.23;14.63;;;;;;;1.19;100.00;147968.59;1724651;80;21162;-59
2021/12/16 10:39:15;;;;;;;39.43;15.00;;;;;;;1.17;100.00;147963.44;1731550;80;21113;-59
2021/12/16 10:41:58;;;;;;;35.98;15.78;;;;;;;1.16;100.00;147962.17;1740558;80;21581;-59
2021/12/16 10:44:30;;;;;;;41.18;16.00;;;;;;;1.17;100.00;147907.19;1738213;80;21117;-60
2021/12/16 10:49:42;;;;;;;45.38;16.42;;;;;;;1.25;100.00;147124.86;1731083;80;21808;-58
2021/12/16 10:52:15;;;;;;;48.75;16.25;;;;;;;1.25;100.00;147984.08;1736162;80;21692;-58
2021/12/16 10:54:44;;;;;;;37.75;14.07;;;;;;;1.26;100.00;147986.66;1742537;79;21108;-58
2021/12/16 10:57:17;;;;;;;45.58;17.30;;;;;;;1.28;100.00;147991.80;1742795;80;21023;-58
2021/12/16 10:59:50;;;;;;;47.13;17.45;;;;;;;1.31;100.00;147999.53;1742455;80;20939;-58
2021/12/16 11:02:32;;;;;;;40.08;16.35;;;;;;;1.34;100.00;148005.98;1715458;80;21206;-58
2021/12/16 11:05:06;;;;;;;41.15;16.67;;;;;;;1.36;100.00;148012.39;1730082;80;21076;-60
2021/12/16 11:07:40;;;;;;;41.33;16.77;;;;;;;1.37;100.00;148014.97;1732495;80;21016;-58
2021/12/16 11:10:33;;;;;;;38.48;16.55;;;;;;;1.40;100.00;148022.69;1730432;80;21567;-58
2021/12/16 11:13:08;;;;;;;43.38;16.55;;;;;;;1.39;100.00;148018.86;1742331;80;21589;-58
2021/12/16 11:15:43;;;;;;;48.13;17.37;;;;;;;1.40;100.00;148021.44;1734510;80;21544;-59
2021/12/16 11:18:20;;;;;;;45.25;17.02;;;;;;;1.39;100.00;148020.13;1725269;80;22256;-59
2021/12/16 11:21:03;;;;;;;44.08;18.50;;;;;;;1.36;100.00;148012.39;1740772;80;21065;-58
2021/12/16 11:23:40;;;;;;;52.95;15.55;;;;;;;1.35;100.00;148009.81;1729474;80;21464;-59
2021/12/16 11:26:20;;;;;;;38.85;15.83;;;;;;;1.34;100.00;148007.25;1739091;80;21111;-61
2021/12/16 11:28:49;;;;;;;44.67;18.65;;;;;;;1.33;100.00;148004.67;1731559;80;21013;-58
2021/12/16 11:31:30;;;;;;;49.95;18.35;;;;;;;1.34;100.00;148005.98;1715079;82;21041;-59
2021/12/16 11:34:07;;;;;;;53.38;18.55;;;;;;;1.35;100.00;148008.56;1706424;80;21041;-59
2021/12/16 11:36:41;;;;;;;48.45;16.15;;;;;;;1.35;100.00;148009.81;1709346;80;21148;-59
2021/12/16 11:39:30;;;;;;;43.00;16.17;;;;;;;1.34;100.00;148005.98;1727132;80;21093;-60
2021/12/16 11:42:02;;;;;;;43.42;15.85;;;;;;;1.34;100.00;148007.25;1735273;80;21532;-59
2021/12/16 11:44:40;;;;;;;39.92;15.40;;;;;;;1.34;100.00;148007.25;1673403;83;21112;-58
2021/12/16 11:47:23;;;;;;;41.98;16.77;;;;;;;1.32;100.00;148002.09;1656463;83;21073;-59
2021/12/16 11:50:00;;;;;;;40.52;15.95;;;;;;;1.35;100.00;148009.81;1707441;81;21074;-59
2021/12/16 11:52:33;;;;;;;31.00;13.40;;;;;;;1.39;100.00;148020.13;1708030;81;21141;-58
2021/12/16 11:55:11;;;;;;;39.50;14.38;;;;;;;1.34;100.00;148007.25;1730242;80;21270;-57
2021/12/16 11:57:42;;;;;;;42.05;16.50;;;;;;;1.33;100.00;148003.41;1736209;80;21077;-57
2021/12/16 12:00:19;;;;;;;36.00;14.60;;;;;;;1.33;100.00;148004.67;1747269;80;21060;-58
2021/12/16 12:03:02;;;;;;;28.90;13.90;;;;;;;1.33;100.00;148004.67;1729461;80;21080;-60
2021/12/16 12:05:45;;;;;;;39.35;16.87;;;;;;;1.32;100.00;148002.09;1744631;80;22010;-57
2021/12/16 12:08:23;;;;;;;38.15;14.33;;;;;;;1.36;100.00;148012.39;1741864;80;21118;-59
2021/12/16 12:11:16;;;;;;;36.00;14.65;;;;;;;1.35;100.00;148009.81;1730604;80;21492;-59
2021/12/16 12:13:46;;;;;;;31.80;13.80;;;;;;;1.35;100.00;148009.81;1727419;80;21102;-58
2021/12/16 12:16:26;;;;;;;34.30;13.25;;;;;;;1.34;100.00;148007.25;1734648;80;21064;-59
2021/12/16 12:19:00;;;;;;;31.75;12.88;;;;;;;1.30;100.00;147996.95;1732696;80;22500;-58
2021/12/16 12:21:46;;;;;;;26.23;11.65;;;;;;;1.28;100.00;147991.80;1740264;80;21111;-58
2021/12/16 12:24:25;;;;;;;25.75;12.58;;;;;;;1.25;100.00;147985.34;1727165;80;21029;-59
2021/12/16 12:27:02;;;;;;;25.05;11.33;;;;;;;1.23;100.00;147978.94;1704656;81;21128;-58
2021/12/16 12:29:48;;;;;;;24.25;11.03;;;;;;;1.20;100.00;147971.16;1689762;80;21099;-59
2021/12/16 12:32:25;;;;;;;24.52;11.45;;;;;;;1.20;100.00;147971.16;1705257;81;21084;-58
2021/12/16 12:34:59;;;;;;;26.17;11.40;;;;;;;1.19;100.00;147968.59;1664432;83;21154;-57
2021/12/16 12:37:28;;;;;;;26.48;11.10;;;;;;;1.19;100.00;147968.59;1676140;83;21044;-59
2021/12/16 12:40:10;;;;;;;25.75;13.08;;;;;;;1.20;100.00;147971.16;1673957;83;22328;-59
2021/12/16 12:42:38;;;;;;;33.02;13.22;;;;;;;1.17;100.00;147964.75;1732797;80;21104;-59
2021/12/16 12:45:08;;;;;;;27.02;11.85;;;;;;;1.16;100.00;147962.17;1713717;81;21538;-58
2021/12/16 12:47:36;;;;;;;26.87;12.58;;;;;;;1.13;100.00;147955.72;1736921;80;21121;-59
2021/12/16 12:50:17;;;;;;;25.62;11.85;;;;;;;1.12;100.00;147953.14;1690958;81;21147;-58
2021/12/16 12:52:47;;;;;;;38.92;12.00;;;;;;;1.16;100.00;147960.86;1662931;84;21040;-59
2021/12/16 12:55:17;;;;;;;36.10;13.75;;;;;;;1.13;100.00;147955.72;1737564;80;21017;-58
2021/12/16 12:57:46;;;;;;;24.87;10.63;;;;;;;1.18;100.00;147967.31;1727034;80;21083;-58
2021/12/16 13:00:34;;;;;;;20.35;10.28;;;;;;;1.19;100.00;147968.59;1673341;82;21167;-58
2021/12/16 13:03:17;;;;;;;23.67;10.40;;;;;;;1.20;100.00;147971.16;1746373;80;21108;-59
2021/12/16 13:05:57;;;;;;;22.32;10.10;;;;;;;1.19;100.00;147968.59;1736943;80;21060;-60
2021/12/16 13:08:36;;;;;;;23.85;11.73;;;;;;;1.19;100.00;147968.59;1743789;80;21481;-57
2021/12/16 13:11:14;;;;;;;24.98;10.95;;;;;;;1.20;100.00;147971.16;1735497;79;21512;-59
2021/12/16 13:14:17;;;;;;;32.93;11.83;;;;;;;1.22;100.00;147976.36;1735324;79;21152;-60
2021/12/16 13:17:41;;;;;;;28.70;10.75;;;;;;;1.25;100.00;147984.08;1721495;80;21070;-57
2021/12/16 13:29:28;;;;;;;35.63;13.15;;;;;;;1.23;100.00;147980.19;1736906;80;21150;-59
2021/12/16 13:31:03;;;;;;;23.32;11.20;;;;;;;1.25;100.00;147984.08;1700527;80;21051;-59
2021/12/16 13:33:43;;;;;;;31.27;11.90;;;;;;;1.28;100.00;147991.80;1719293;80;21089;-59
2021/12/16 13:36:17;;;;;;;22.13;10.63;;;;;;;1.30;100.00;147996.95;1715338;80;21097;-58
2021/12/16 13:38:40;;;;;;;33.13;11.63;;;;;;;1.27;100.00;147989.23;1724168;79;21095;-59
2021/12/16 13:41:28;;;;;;;27.07;12.20;;;;;;;1.26;100.00;147986.66;1725875;80;21092;-57
2021/12/16 13:44:12;;;;;;;28.67;12.23;;;;;;;1.26;100.00;147987.91;1732330;80;21589;-57
2021/12/16 13:47:07;;;;;;;27.90;11.93;;;;;;;1.28;100.00;147991.80;1726571;80;22260;-58
2021/12/16 13:58:31;;;;;;;42.95;12.90;;;;;;;1.36;100.00;148012.39;1719415;80;21044;-58
2021/12/16 14:03:41;;;;;;;25.17;12.85;;;;;;;1.43;100.00;148029.16;1750693;80;21842;-59
2021/12/16 14:08:42;;;;;;;38.55;13.28;;;;;;;1.45;100.00;148033.05;1727057;80;21430;-58
2021/12/16 14:14:31;;;;;;;41.35;12.37;;;;;;;1.52;100.00;148051.06;1717757;80;21478;-60
2021/12/16 14:17:09;;;;;;;29.72;11.68;;;;;;;1.50;100.00;148047.19;1722711;80;21087;-59
2021/12/16 14:42:18;;;;;;;34.20;10.95;;;;;;;1.37;100.00;148014.97;1704055;81;21134;-58
2021/12/16 14:48:04;;;;;;;25.62;10.15;;;;;;;1.34;100.00;148007.25;1706317;80;21684;-59
2021/12/16 14:50:45;;;;;;;21.82;9.73;;;;;;;1.33;100.00;148004.67;1715576;80;21216;-60
2021/12/16 14:53:32;;;;;;;22.30;10.55;;;;;;;1.33;100.00;148004.67;1677034;83;21949;-58
2021/12/16 14:56:07;;;;;;;21.35;10.63;;;;;;;1.35;100.00;148009.81;1713231;81;21528;-60
2021/12/16 14:58:36;;;;;;;28.23;9.63;;;;;;;1.33;100.00;148004.67;1702150;82;21108;-57
2021/12/16 15:01:16;;;;;;;24.20;11.18;;;;;;;1.32;100.00;148000.78;1679085;82;21075;-59
2021/12/16 15:03:43;;;;;;;20.17;9.33;;;;;;;1.35;100.00;148009.81;1681653;83;22255;-59
2021/12/16 15:06:18;;;;;;;20.25;9.43;;;;;;;1.35;100.00;148009.81;1712605;81;20986;-60
2021/12/16 15:11:30;;;;;;;22.52;8.40;;;;;;;1.29;100.00;147995.64;1730236;80;21073;-60
2021/12/16 15:13:57;;;;;;;30.37;8.63;;;;;;;1.28;100.00;147991.80;1736520;80;21491;-59
2021/12/16 15:16:50;;;;;;;25.35;9.28;;;;;;;1.28;100.00;147991.80;1742675;80;20984;-59
2021/12/16 15:36:28;;;;;;;20.57;7.05;;;;;;;1.28;100.00;147991.80;1708575;81;21071;-59
2021/12/16 15:38:41;;;;;;;21.80;7.33;;;;;;;1.27;100.00;147989.23;1708818;81;22066;-58
2021/12/16 15:40:57;;;;;;;14.15;5.67;;;;;;;1.25;100.00;147985.34;1680330;83;21095;-57
2021/12/16 15:43:21;;;;;;;11.60;6.40;;;;;;;1.28;100.00;147991.80;1681740;82;22047;-59
2021/12/16 15:45:52;;;;;;;12.68;6.22;;;;;;;1.28;100.00;147991.80;1683166;83;21318;-59
2021/12/16 15:48:22;;;;;;;15.18;6.47;;;;;;;1.22;100.00;147976.36;1716654;82;21094;-58
2021/12/16 15:51:02;;;;;;;12.00;5.85;;;;;;;1.17;100.00;147963.44;1719166;81;20970;-58
2021/12/16 15:53:34;;;;;;;15.00;6.30;;;;;;;1.11;100.00;147950.56;1717413;80;21140;-60
2021/12/16 15:56:06;;;;;;;18.15;6.47;;;;;;;1.11;100.00;147950.56;1725306;79;21446;-59
2021/12/16 15:58:40;;;;;;;12.47;6.65;;;;;;;1.13;100.00;147954.45;1724388;79;21201;-59
2021/12/16 16:01:12;;;;;;;8.95;4.92;;;;;;;1.16;100.00;147960.86;1714363;80;21081;-59
2021/12/16 16:03:41;;;;;;;10.20;5.95;;;;;;;1.15;100.00;147959.59;1732569;80;21067;-58
2021/12/16 16:06:09;;;;;;;8.68;4.80;;;;;;;1.13;100.00;147955.72;1741895;80;21143;-57
2021/12/16 16:08:39;;;;;;;9.15;4.90;;;;;;;1.10;100.00;147946.69;1751355;80;21225;-58
2021/12/16 16:11:16;;;;;;;11.38;4.97;;;;;;;1.08;100.00;147942.84;1732013;80;20980;-60
2021/12/16 16:13:57;;;;;;;27.67;5.47;;;;;;;1.07;100.00;147940.27;1672339;83;20978;-60
2021/12/16 16:16:29;;;;;;;13.35;6.17;;;;;;;1.10;100.00;147947.98;1722411;81;21790;-58
2021/12/16 16:18:56;;;;;;;13.80;5.33;;;;;;;1.11;100.00;147950.56;1706434;80;21547;-58
2021/12/16 16:21:42;;;;;;;6.95;4.97;;;;;;;1.10;100.00;147947.98;1702590;81;21396;-59
2021/12/16 16:24:17;;;;;;;9.63;4.85;;;;;;;1.11;100.00;147949.31;1719935;81;21080;-59
2021/12/16 16:26:45;;;;;;;7.65;4.95;;;;;;;1.10;100.00;147947.98;1706233;81;21638;-59
2021/12/16 16:29:17;;;;;;;7.35;4.10;;;;;;;1.11;100.00;147950.56;1708827;81;21060;-60
2021/12/16 16:31:45;;;;;;;6.83;4.00;;;;;;;1.08;100.00;147942.84;1715799;81;21898;-59
2021/12/16 16:34:22;;;;;;;7.62;5.03;;;;;;;1.06;100.00;147937.69;1702237;80;21033;-59
2021/12/16 16:36:53;;;;;;;7.67;4.85;;;;;;;1.05;100.00;147935.13;1698518;81;20988;-60
2021/12/16 16:39:24;;;;;;;8.43;5.17;;;;;;;1.07;100.00;147940.27;1685157;83;21130;-59
2021/12/16 16:41:55;;;;;;;9.88;4.90;;;;;;;1.08;100.00;147941.53;1693394;80;21121;-59
2021/12/16 16:44:24;;;;;;;9.83;4.97;;;;;;;1.10;100.00;147947.98;1698246;81;22162;-60
2021/12/16 16:47:08;;;;;;;9.45;5.50;;;;;;;1.11;100.00;147950.56;1696844;81;21704;-60
2021/12/16 16:49:47;;;;;;;7.62;5.10;;;;;;;1.10;100.00;147947.98;1739081;80;21542;-59
2021/12/16 16:52:12;;;;;;;7.83;4.97;;;;;;;1.12;100.00;147953.14;1715225;81;21096;-60
2021/12/16 16:54:48;;;;;;;12.10;4.67;;;;;;;1.12;100.00;147953.14;1721326;81;21111;-60
2021/12/16 16:57:19;;;;;;;17.35;5.78;;;;;;;1.12;100.00;147953.14;1729998;80;21065;-61
2021/12/16 16:59:50;;;;;;;9.98;5.35;;;;;;;1.14;100.00;147958.28;1737105;79;21078;-60
2021/12/16 17:02:37;;;;;;;10.95;4.80;;;;;;;1.17;100.00;147963.44;1738513;80;21097;-60
2021/12/16 17:05:25;;;;;;;9.48;5.00;;;;;;;1.19;100.00;147969.89;1738286;80;21026;-59
2021/12/16 17:08:05;;;;;;;27.37;5.58;;;;;;;1.20;100.00;147971.16;1732952;79;21120;-58
2021/12/16 17:10:48;;;;;;;9.30;5.12;;;;;;;1.21;100.00;147975.05;1737451;80;21131;-59
2021/12/16 17:13:47;;;;;;;15.83;5.22;;;;;;;1.22;100.00;147976.36;1711883;80;21593;-59
2021/12/16 17:18:49;;;;;;;10.43;5.70;;;;;;;1.20;100.00;147971.16;1735513;80;21041;-59
2021/12/16 17:21:23;;;;;;;20.12;6.55;;;;;;;1.22;100.00;147976.36;1718369;81;21112;-59
2021/12/16 17:24:08;;;;;;;20.05;6.37;;;;;;;1.23;100.00;147978.94;1727571;80;21159;-59
2021/12/16 17:26:41;;;;;;;18.52;6.62;;;;;;;1.25;100.00;147984.08;1735507;80;21100;-59
2021/12/16 17:29:13;;;;;;;16.07;7.67;;;;;;;1.28;100.00;147991.80;1740102;80;21057;-59
2021/12/16 17:31:49;;;;;;;15.23;8.00;;;;;;;1.33;100.00;148004.67;1754919;79;21597;-59
2021/12/16 17:34:26;;;;;;;18.35;6.97;;;;;;;1.39;100.00;148020.13;1750489;80;21094;-59
2021/12/16 17:37:01;;;;;;;12.13;7.00;;;;;;;1.38;100.00;148017.55;1739202;80;21076;-58
2021/12/16 17:39:33;;;;;;;16.80;7.00;;;;;;;1.40;100.00;148022.69;1725282;80;21138;-60
2021/12/16 17:42:07;;;;;;;15.85;7.08;;;;;;;1.39;100.00;148020.13;1728544;80;21125;-57
2021/12/16 17:44:34;;;;;;;8.83;5.85;;;;;;;1.42;100.00;148027.84;1726389;80;21072;-58
2021/12/16 17:47:07;;;;;;;12.78;7.67;;;;;;;1.45;100.00;148034.31;1715371;81;21490;-58
2021/12/16 17:49:34;;;;;;;14.20;8.25;;;;;;;1.48;100.00;148040.77;1718216;81;21078;-59
2021/12/16 17:52:04;;;;;;;20.30;7.42;;;;;;;1.51;100.00;148048.50;1716711;80;22229;-58
2021/12/16 17:54:33;;;;;;;25.43;7.42;;;;;;;1.53;100.00;148053.64;1707048;81;21144;-58
2021/12/16 17:57:00;;;;;;;11.75;6.97;;;;;;;1.56;100.00;148061.37;1658893;83;21060;-58
2021/12/16 17:59:35;;;;;;;13.48;6.60;;;;;;;1.57;100.00;148063.94;1675957;82;21539;-58
2021/12/16 18:02:03;;;;;;;10.40;6.30;;;;;;;1.57;100.00;148065.25;1685861;83;21054;-58
2021/12/16 18:04:30;;;;;;;14.58;7.60;;;;;;;1.61;100.00;148072.98;1701192;81;21609;-59
2021/12/16 18:07:03;;;;;;;13.53;7.28;;;;;;;1.64;100.00;148081.97;1694497;81;21168;-60
2021/12/16 18:09:34;;;;;;;16.73;7.55;;;;;;;1.66;100.00;148087.17;1705196;81;21072;-58
2021/12/16 18:12:18;;;;;;;14.45;6.97;;;;;;;1.67;100.00;148089.75;1690077;81;20947;-61
2021/12/16 18:15:02;;;;;;;13.75;7.67;;;;;;;1.67;100.00;148089.75;1715908;81;21056;-58
2021/12/16 18:17:33;;;;;;;13.55;7.62;;;;;;;1.69;100.00;148094.89;1710470;81;21671;-57
2021/12/16 18:20:11;;;;;;;19.00;8.35;;;;;;;1.71;100.00;148100.05;1717458;81;21083;-61
2021/12/16 18:22:42;;;;;;;13.48;7.83;;;;;;;1.75;100.00;148107.77;1715071;81;21979;-60
2021/12/16 18:25:16;;;;;;;13.88;7.80;;;;;;;1.77;100.00;148114.23;1711683;81;21115;-58
2021/12/16 18:27:57;;;;;;;16.87;8.23;;;;;;;1.80;100.00;148121.97;1709246;81;26723;-58
2021/12/16 18:30:32;;;;;;;15.40;8.60;;;;;;;1.81;100.00;148124.53;1688826;80;21558;-59
2021/12/16 18:33:03;;;;;;;;;;;;;;;1.84;100.00;148132.27;1714259;82;21091;-59
2021/12/16 18:35:40;;;;;;;28.47;9.70;;;;;;;1.90;100.00;148146.45;1691489;81;20475;-57
2021/12/16 18:38:14;;;;;;;17.55;8.33;;;;;;;1.93;100.00;148154.17;1700954;81;20986;-58
2021/12/16 18:40:44;;;;;;;20.10;10.38;;;;;;;1.96;100.00;148161.91;1704222;81;21104;-59
2021/12/16 18:43:10;;;;;;;20.72;9.45;;;;;;;1.99;100.00;148169.64;1728866;81;21870;-59
2021/12/16 18:45:40;;;;;;;22.95;9.03;;;;;;;2.05;100.00;148182.52;1733695;80;21167;-59
2021/12/16 18:48:16;;;;;;;20.77;11.53;;;;;;;2.08;100.00;148190.25;1727455;81;21330;-59
2021/12/16 18:56:19;;;;;;;25.57;10.40;;;;;;;2.06;100.00;148185.09;1707455;81;21484;-57
2021/12/16 18:58:45;;;;;;;18.95;9.95;;;;;;;2.03;100.00;148177.36;1679276;83;21092;-57
2021/12/16 19:01:31;;;;;;;20.82;10.15;;;;;;;2.02;100.00;148174.78;1711425;80;21009;-57
2021/12/16 19:03:59;;;;;;;22.75;10.98;;;;;;;1.99;100.00;148169.64;1673473;83;21124;-58
2021/12/16 19:06:29;;;;;;;18.57;10.58;;;;;;;1.98;100.00;148167.06;1717225;80;21560;-59
2021/12/16 19:08:57;;;;;;;19.12;10.65;;;;;;;1.98;100.00;148167.06;1737114;80;21114;-58
2021/12/16 19:11:27;;;;;;;20.00;10.25;;;;;;;1.99;100.00;148169.64;1725421;80;21130;-57
2021/12/16 19:13:54;;;;;;;20.80;11.25;;;;;;;1.99;100.00;148168.38;1660333;83;21059;-57
2021/12/16 19:16:21;;;;;;;18.00;9.73;;;;;;;1.97;100.00;148164.48;1739171;80;21542;-57
2021/12/16 19:18:50;;;;;;;19.75;9.35;;;;;;;1.99;100.00;148168.38;1734470;79;21013;-57
2021/12/16 19:21:17;;;;;;;16.50;9.05;;;;;;;2.02;100.00;148174.78;1725680;81;21204;-58
2021/12/16 19:23:48;;;;;;;18.30;8.88;;;;;;;2.04;100.00;148179.94;1734175;80;21530;-58
2021/12/16 19:26:16;;;;;;;20.97;10.13;;;;;;;2.05;100.00;148182.52;1732876;79;21603;-57
2021/12/16 19:28:43;;;;;;;24.23;11.45;;;;;;;2.05;100.00;148182.52;1730028;80;21677;-57
2021/12/16 19:31:12;;;;;;;21.77;10.78;;;;;;;2.07;100.00;148187.67;1714574;80;21409;-58
2021/12/16 19:33:43;;;;;;;19.37;11.25;;;;;;;2.09;100.00;148192.81;1737404;80;21063;-56